Valldemossa, Spain

10:04 PM CET on March 06, 2015 (GMT +0100)
IPMVALLD5 | Change Station
CLOSE
Current Station
Personal Weather Station
Location: Valldemossa II, ILLESBA
Elevation: 1400 ft
Nearby Weather Stations

Elev 1400 ft 39.71 °N, 2.63 °E | Updated 4 minutes ago

Clear
Clear
46.2 °F
Feels Like 46 °F
N
0.0
Wind Variable Wind from NE
Gusts 2.2 mph

Today
High -- | Low -- °F
--% Chance of Precip.
Yesterday
High -- | Low -- °F
Precip. -- in
7:15 AM 6:46 PM
Full, 99% visible
Pressure 30.48 in
Visibility -9999.0 miles
Clouds
Windchill 46 °F
Dew Point 31 °F
Humidity 55%
Rainfall in
Snow Depth Not available.
UV Not available.
Pollen Not available.
Air Quality Not available.
Flu Activity Not available.
METAR LEPA 062030Z 06002KT CAVOK 06/00 Q1032 NOSIG

More Conditions Fewer Conditions

Pressure 30.48 in
Visibility -9999.0 miles
Clouds
Windchill 46 °F
Dew Point 31 °F
Humidity 55%
Rainfall in
Snow Depth Not available.
UV Not available.
Pollen Not available.
Air Quality Not available.
Flu Activity Not available.
METAR LEPA 062030Z 06002KT CAVOK 06/00 Q1032 NOSIG

More Conditions Fewer Conditions

10-Day Weather Forecast

Almanac

Astronomy

Mar. 06, 2015 Rise Set
Actual Time
Civil Twilight
Nautical Twilight
Astronomical Twilight
Moon
Length of Visible Light
Length of Day
Tomorrow will be .
, % of the Moon is Illuminated

Today's Extremes

Country Highs Country Lows

Community

WunderPhotos

Upload Photos

1,803,390 photos uploaded!

WunderBlogs® & News

Nearby

Air Quality

  Air Quality AQ Index Pollutant
Not available.

Snow Depth

Station Depth Elevation

Earthquake Activity

City Distance Mag. Time & Date
Minimum magnitude displayed is 2.5.

Coastal Water Temperatures

Place Temperature

Nearby Weather Stations